sensor_id;sensor_type;location;lat;lon;timestamp;temperature;humidity
19403;DHT22;9837;48.888;8.998;2023-03-01T00:00:27;4.10;55.10
19403;DHT22;9837;48.888;8.998;2023-03-01T00:02:52;4.50;55.80
19403;DHT22;9837;48.888;8.998;2023-03-01T00:05:18;4.20;55.00
19403;DHT22;9837;48.888;8.998;2023-03-01T00:07:43;4.20;55.50
19403;DHT22;9837;48.888;8.998;2023-03-01T00:10:09;4.70;55.90
19403;DHT22;9837;48.888;8.998;2023-03-01T00:12:35;4.10;55.40
19403;DHT22;9837;48.888;8.998;2023-03-01T00:15:01;4.00;55.30
19403;DHT22;9837;48.888;8.998;2023-03-01T00:17:27;4.80;56.20
19403;DHT22;9837;48.888;8.998;2023-03-01T00:19:53;3.90;55.60
19403;DHT22;9837;48.888;8.998;2023-03-01T00:24:45;3.80;55.50
19403;DHT22;9837;48.888;8.998;2023-03-01T00:27:10;3.80;55.70
19403;DHT22;9837;48.888;8.998;2023-03-01T00:29:36;3.80;55.70
19403;DHT22;9837;48.888;8.998;2023-03-01T00:32:01;3.80;56.30
19403;DHT22;9837;48.888;8.998;2023-03-01T00:34:27;3.80;56.20
19403;DHT22;9837;48.888;8.998;2023-03-01T00:36:52;3.80;56.20
19403;DHT22;9837;48.888;8.998;2023-03-01T00:39:18;3.60;55.90
19403;DHT22;9837;48.888;8.998;2023-03-01T00:41:43;3.60;56.30
19403;DHT22;9837;48.888;8.998;2023-03-01T00:44:10;3.60;57.00
19403;DHT22;9837;48.888;8.998;2023-03-01T00:46:35;3.60;57.60
19403;DHT22;9837;48.888;8.998;2023-03-01T00:49:01;3.60;57.60
19403;DHT22;9837;48.888;8.998;2023-03-01T00:51:28;3.90;57.70
19403;DHT22;9837;48.888;8.998;2023-03-01T00:53:56;3.80;56.70
19403;DHT22;9837;48.888;8.998;2023-03-01T00:56:22;3.80;56.60
19403;DHT22;9837;48.888;8.998;2023-03-01T00:58:47;3.70;56.40
19403;DHT22;9837;48.888;8.998;2023-03-01T01:01:17;3.70;56.90
19403;DHT22;9837;48.888;8.998;2023-03-01T01:04:04;3.60;56.20
19403;DHT22;9837;48.888;8.998;2023-03-01T01:06:35;3.60;56.30
19403;DHT22;9837;48.888;8.998;2023-03-01T01:09:02;3.60;56.80
19403;DHT22;9837;48.888;8.998;2023-03-01T01:11:29;3.50;56.30
19403;DHT22;9837;48.888;8.998;2023-03-01T01:13:55;3.50;56.20
19403;DHT22;9837;48.888;8.998;2023-03-01T01:16:22;3.50;56.70
19403;DHT22;9837;48.888;8.998;2023-03-01T01:18:48;3.20;56.40
19403;DHT22;9837;48.888;8.998;2023-03-01T01:21:16;3.40;57.00
19403;DHT22;9837;48.888;8.998;2023-03-01T01:23:43;3.30;56.70
19403;DHT22;9837;48.888;8.998;2023-03-01T01:26:11;3.30;57.30
19403;DHT22;9837;48.888;8.998;2023-03-01T01:31:04;3.30;57.30
19403;DHT22;9837;48.888;8.998;2023-03-01T01:33:31;3.40;57.70
19403;DHT22;9837;48.888;8.998;2023-03-01T01:35:56;3.80;58.40
19403;DHT22;9837;48.888;8.998;2023-03-01T01:40:49;3.40;57.90
19403;DHT22;9837;48.888;8.998;2023-03-01T01:43:19;3.50;58.30
19403;DHT22;9837;48.888;8.998;2023-03-01T01:45:45;3.50;57.60
19403;DHT22;9837;48.888;8.998;2023-03-01T01:48:14;3.50;58.00
19403;DHT22;9837;48.888;8.998;2023-03-01T01:50:41;3.50;57.00
19403;DHT22;9837;48.888;8.998;2023-03-01T01:53:13;3.50;56.80
19403;DHT22;9837;48.888;8.998;2023-03-01T01:55:44;3.50;57.30
19403;DHT22;9837;48.888;8.998;2023-03-01T01:58:14;3.40;56.40
19403;DHT22;9837;48.888;8.998;2023-03-01T02:03:10;3.40;56.70
19403;DHT22;9837;48.888;8.998;2023-03-01T02:08:16;3.30;57.20
19403;DHT22;9837;48.888;8.998;2023-03-01T02:10:44;3.20;57.60
19403;DHT22;9837;48.888;8.998;2023-03-01T02:13:10;3.20;57.10
19403;DHT22;9837;48.888;8.998;2023-03-01T02:15:38;3.20;57.60
19403;DHT22;9837;48.888;8.998;2023-03-01T02:18:05;3.20;57.50
19403;DHT22;9837;48.888;8.998;2023-03-01T02:23:15;3.10;57.30
19403;DHT22;9837;48.888;8.998;2023-03-01T02:25:48;3.10;57.80
19403;DHT22;9837;48.888;8.998;2023-03-01T02:28:25;3.20;57.80
19403;DHT22;9837;48.888;8.998;2023-03-01T02:30:50;3.20;57.70
19403;DHT22;9837;48.888;8.998;2023-03-01T02:33:36;3.10;57.70
19403;DHT22;9837;48.888;8.998;2023-03-01T02:36:22;3.10;57.30
19403;DHT22;9837;48.888;8.998;2023-03-01T02:38:52;3.10;57.30
19403;DHT22;9837;48.888;8.998;2023-03-01T02:41:19;3.20;57.80
19403;DHT22;9837;48.888;8.998;2023-03-01T02:43:46;3.00;57.60
19403;DHT22;9837;48.888;8.998;2023-03-01T02:46:20;3.00;57.60
19403;DHT22;9837;48.888;8.998;2023-03-01T02:48:53;3.00;58.10
19403;DHT22;9837;48.888;8.998;2023-03-01T02:51:51;3.00;58.00
19403;DHT22;9837;48.888;8.998;2023-03-01T02:54:27;3.10;58.10
19403;DHT22;9837;48.888;8.998;2023-03-01T02:59:22;3.20;57.60
19403;DHT22;9837;48.888;8.998;2023-03-01T03:01:49;3.30;58.10
19403;DHT22;9837;48.888;8.998;2023-03-01T03:04:16;3.50;58.00
19403;DHT22;9837;48.888;8.998;2023-03-01T03:06:44;3.30;57.80
19403;DHT22;9837;48.888;8.998;2023-03-01T03:09:11;3.40;57.80
19403;DHT22;9837;48.888;8.998;2023-03-01T03:11:37;3.40;57.20
19403;DHT22;9837;48.888;8.998;2023-03-01T03:14:04;3.30;57.10
19403;DHT22;9837;48.888;8.998;2023-03-01T03:16:31;3.50;57.70
19403;DHT22;9837;48.888;8.998;2023-03-01T03:18:56;3.50;57.70
19403;DHT22;9837;48.888;8.998;2023-03-01T03:21:31;3.60;57.80
19403;DHT22;9837;48.888;8.998;2023-03-01T03:23:57;3.60;58.00
19403;DHT22;9837;48.888;8.998;2023-03-01T03:26:23;3.70;57.80
19403;DHT22;9837;48.888;8.998;2023-03-01T03:28:48;3.80;57.70
19403;DHT22;9837;48.888;8.998;2023-03-01T03:31:14;3.80;58.30
19403;DHT22;9837;48.888;8.998;2023-03-01T03:33:39;3.70;57.80
19403;DHT22;9837;48.888;8.998;2023-03-01T03:36:05;3.70;57.90
19403;DHT22;9837;48.888;8.998;2023-03-01T03:38:31;3.80;57.90
19403;DHT22;9837;48.888;8.998;2023-03-01T03:41:05;3.80;58.40
19403;DHT22;9837;48.888;8.998;2023-03-01T03:43:32;3.70;57.90
19403;DHT22;9837;48.888;8.998;2023-03-01T03:45:58;3.70;58.40
19403;DHT22;9837;48.888;8.998;2023-03-01T03:48:25;3.80;58.00
19403;DHT22;9837;48.888;8.998;2023-03-01T03:50:53;3.80;58.50
19403;DHT22;9837;48.888;8.998;2023-03-01T03:53:20;3.90;57.50
19403;DHT22;9837;48.888;8.998;2023-03-01T03:55:46;4.00;57.40
19403;DHT22;9837;48.888;8.998;2023-03-01T03:58:15;4.10;57.40
19403;DHT22;9837;48.888;8.998;2023-03-01T04:00:42;4.00;57.90
19403;DHT22;9837;48.888;8.998;2023-03-01T04:03:10;4.20;57.30
19403;DHT22;9837;48.888;8.998;2023-03-01T04:05:36;4.20;57.10
19403;DHT22;9837;48.888;8.998;2023-03-01T04:08:02;4.20;57.70
19403;DHT22;9837;48.888;8.998;2023-03-01T04:10:29;4.20;57.00
19403;DHT22;9837;48.888;8.998;2023-03-01T04:12:55;3.90;56.80
19403;DHT22;9837;48.888;8.998;2023-03-01T04:15:26;4.40;57.60
19403;DHT22;9837;48.888;8.998;2023-03-01T04:17:53;4.20;57.60
19403;DHT22;9837;48.888;8.998;2023-03-01T04:20:21;4.10;57.70
19403;DHT22;9837;48.888;8.998;2023-03-01T04:22:51;4.20;57.80
19403;DHT22;9837;48.888;8.998;2023-03-01T04:25:17;4.20;57.80
19403;DHT22;9837;48.888;8.998;2023-03-01T04:30:09;4.20;57.50
19403;DHT22;9837;48.888;8.998;2023-03-01T04:32:35;4.20;57.60
19403;DHT22;9837;48.888;8.998;2023-03-01T04:35:00;4.20;58.10
19403;DHT22;9837;48.888;8.998;2023-03-01T04:37:26;4.20;57.40
19403;DHT22;9837;48.888;8.998;2023-03-01T04:39:52;4.20;58.00
19403;DHT22;9837;48.888;8.998;2023-03-01T04:42:18;4.20;57.80
19403;DHT22;9837;48.888;8.998;2023-03-01T04:44:44;4.20;58.50
19403;DHT22;9837;48.888;8.998;2023-03-01T04:47:10;4.30;57.50
19403;DHT22;9837;48.888;8.998;2023-03-01T04:52:03;4.30;57.20
19403;DHT22;9837;48.888;8.998;2023-03-01T04:54:29;4.60;57.80
19403;DHT22;9837;48.888;8.998;2023-03-01T04:56:55;4.30;57.70
19403;DHT22;9837;48.888;8.998;2023-03-01T05:01:54;4.30;57.10
19403;DHT22;9837;48.888;8.998;2023-03-01T05:04:23;4.30;57.60
19403;DHT22;9837;48.888;8.998;2023-03-01T05:06:49;5.10;58.10
19403;DHT22;9837;48.888;8.998;2023-03-01T05:09:16;4.30;57.30
19403;DHT22;9837;48.888;8.998;2023-03-01T05:11:42;4.30;57.80
19403;DHT22;9837;48.888;8.998;2023-03-01T05:14:08;4.20;57.70
19403;DHT22;9837;48.888;8.998;2023-03-01T05:16:35;4.00;57.60
19403;DHT22;9837;48.888;8.998;2023-03-01T05:19:02;4.00;58.20
19403;DHT22;9837;48.888;8.998;2023-03-01T05:21:37;4.20;58.40
19403;DHT22;9837;48.888;8.998;2023-03-01T05:24:22;4.00;58.30
19403;DHT22;9837;48.888;8.998;2023-03-01T05:26:48;4.00;57.80
19403;DHT22;9837;48.888;8.998;2023-03-01T05:29:13;4.00;58.40
19403;DHT22;9837;48.888;8.998;2023-03-01T05:31:39;3.90;58.50
19403;DHT22;9837;48.888;8.998;2023-03-01T05:34:04;3.90;58.50
19403;DHT22;9837;48.888;8.998;2023-03-01T05:36:31;4.00;58.50
19403;DHT22;9837;48.888;8.998;2023-03-01T05:38:57;3.90;58.40
19403;DHT22;9837;48.888;8.998;2023-03-01T05:41:22;3.60;58.30
19403;DHT22;9837;48.888;8.998;2023-03-01T05:43:48;3.60;58.60
19403;DHT22;9837;48.888;8.998;2023-03-01T05:46:13;3.70;58.40
19403;DHT22;9837;48.888;8.998;2023-03-01T05:48:40;3.70;58.90
19403;DHT22;9837;48.888;8.998;2023-03-01T05:53:32;3.80;58.00
19403;DHT22;9837;48.888;8.998;2023-03-01T05:55:57;3.80;58.50
19403;DHT22;9837;48.888;8.998;2023-03-01T05:58:23;3.80;58.30
19403;DHT22;9837;48.888;8.998;2023-03-01T06:00:49;3.80;58.30
19403;DHT22;9837;48.888;8.998;2023-03-01T06:03:17;3.80;57.80
19403;DHT22;9837;48.888;8.998;2023-03-01T06:05:43;3.70;58.30
19403;DHT22;9837;48.888;8.998;2023-03-01T06:08:10;3.70;58.40
19403;DHT22;9837;48.888;8.998;2023-03-01T06:10:36;3.70;58.50
19403;DHT22;9837;48.888;8.998;2023-03-01T06:13:02;3.60;58.60
19403;DHT22;9837;48.888;8.998;2023-03-01T06:15:27;3.60;58.60
19403;DHT22;9837;48.888;8.998;2023-03-01T06:17:55;3.60;58.50
19403;DHT22;9837;48.888;8.998;2023-03-01T06:20:26;3.60;58.70
19403;DHT22;9837;48.888;8.998;2023-03-01T06:22:52;3.50;58.50
19403;DHT22;9837;48.888;8.998;2023-03-01T06:25:19;3.30;58.80
19403;DHT22;9837;48.888;8.998;2023-03-01T06:27:46;3.30;59.40
19403;DHT22;9837;48.888;8.998;2023-03-01T06:30:14;3.30;59.70
19403;DHT22;9837;48.888;8.998;2023-03-01T06:32:40;3.40;59.70
19403;DHT22;9837;48.888;8.998;2023-03-01T06:35:10;3.40;59.00
19403;DHT22;9837;48.888;8.998;2023-03-01T06:37:36;3.70;59.70
19403;DHT22;9837;48.888;8.998;2023-03-01T06:40:06;3.50;60.10
19403;DHT22;9837;48.888;8.998;2023-03-01T06:42:37;4.10;58.10
19403;DHT22;9837;48.888;8.998;2023-03-01T06:45:05;6.70;59.90
19403;DHT22;9837;48.888;8.998;2023-03-01T06:47:31;4.40;58.00
19403;DHT22;9837;48.888;8.998;2023-03-01T06:49:58;4.50;56.50
19403;DHT22;9837;48.888;8.998;2023-03-01T06:52:24;4.30;56.80
19403;DHT22;9837;48.888;8.998;2023-03-01T06:54:50;4.30;57.30
19403;DHT22;9837;48.888;8.998;2023-03-01T06:57:16;4.50;56.90
19403;DHT22;9837;48.888;8.998;2023-03-01T06:59:41;4.50;57.30
19403;DHT22;9837;48.888;8.998;2023-03-01T07:02:10;4.50;56.80
19403;DHT22;9837;48.888;8.998;2023-03-01T07:04:37;4.40;56.90
19403;DHT22;9837;48.888;8.998;2023-03-01T07:07:02;4.30;57.60
19403;DHT22;9837;48.888;8.998;2023-03-01T07:09:28;4.00;57.30
19403;DHT22;9837;48.888;8.998;2023-03-01T07:11:53;3.70;58.10
19403;DHT22;9837;48.888;8.998;2023-03-01T07:14:19;3.70;58.70
19403;DHT22;9837;48.888;8.998;2023-03-01T07:16:45;4.00;57.90
19403;DHT22;9837;48.888;8.998;2023-03-01T07:19:11;4.10;57.30
19403;DHT22;9837;48.888;8.998;2023-03-01T07:21:36;4.10;58.40
19403;DHT22;9837;48.888;8.998;2023-03-01T07:24:05;4.00;58.00
19403;DHT22;9837;48.888;8.998;2023-03-01T07:26:31;4.20;57.80
19403;DHT22;9837;48.888;8.998;2023-03-01T07:29:00;4.40;57.40
19403;DHT22;9837;48.888;8.998;2023-03-01T07:31:25;4.50;56.60
19403;DHT22;9837;48.888;8.998;2023-03-01T07:33:53;4.50;57.20
19403;DHT22;9837;48.888;8.998;2023-03-01T07:36:19;4.80;56.30
19403;DHT22;9837;48.888;8.998;2023-03-01T07:38:45;4.80;56.70
19403;DHT22;9837;48.888;8.998;2023-03-01T07:41:10;4.90;56.40
19403;DHT22;9837;48.888;8.998;2023-03-01T07:43:36;5.00;56.30
19403;DHT22;9837;48.888;8.998;2023-03-01T07:46:01;4.90;56.20
19403;DHT22;9837;48.888;8.998;2023-03-01T07:48:28;4.80;57.30
19403;DHT22;9837;48.888;8.998;2023-03-01T07:50:54;4.80;56.60
19403;DHT22;9837;48.888;8.998;2023-03-01T07:53:19;4.60;56.90
19403;DHT22;9837;48.888;8.998;2023-03-01T07:55:45;4.70;57.20
19403;DHT22;9837;48.888;8.998;2023-03-01T07:58:10;4.60;57.10
19403;DHT22;9837;48.888;8.998;2023-03-01T08:00:36;4.50;57.40
19403;DHT22;9837;48.888;8.998;2023-03-01T08:03:02;4.20;57.80
19403;DHT22;9837;48.888;8.998;2023-03-01T08:05:28;4.20;58.50
19403;DHT22;9837;48.888;8.998;2023-03-01T08:07:54;4.10;58.90
19403;DHT22;9837;48.888;8.998;2023-03-01T08:10:20;6.00;59.60
19403;DHT22;9837;48.888;8.998;2023-03-01T08:12:45;4.20;58.30
19403;DHT22;9837;48.888;8.998;2023-03-01T08:15:11;4.50;58.30
19403;DHT22;9837;48.888;8.998;2023-03-01T08:17:37;4.60;57.80
19403;DHT22;9837;48.888;8.998;2023-03-01T08:20:03;4.80;57.40
19403;DHT22;9837;48.888;8.998;2023-03-01T08:22:31;4.70;56.60
19403;DHT22;9837;48.888;8.998;2023-03-01T08:24:56;4.80;57.10
19403;DHT22;9837;48.888;8.998;2023-03-01T08:27:22;5.10;56.40
19403;DHT22;9837;48.888;8.998;2023-03-01T08:29:47;4.80;56.80
19403;DHT22;9837;48.888;8.998;2023-03-01T08:32:13;4.70;57.50
19403;DHT22;9837;48.888;8.998;2023-03-01T08:34:38;4.60;57.80
19403;DHT22;9837;48.888;8.998;2023-03-01T08:37:04;5.00;58.00
19403;DHT22;9837;48.888;8.998;2023-03-01T08:39:30;4.80;57.30
19403;DHT22;9837;48.888;8.998;2023-03-01T08:41:55;4.80;57.30
19403;DHT22;9837;48.888;8.998;2023-03-01T08:44:21;5.00;57.60
19403;DHT22;9837;48.888;8.998;2023-03-01T08:46:47;4.60;57.50
19403;DHT22;9837;48.888;8.998;2023-03-01T08:49:17;4.50;57.80
19403;DHT22;9837;48.888;8.998;2023-03-01T08:51:44;4.60;58.10
19403;DHT22;9837;48.888;8.998;2023-03-01T08:54:12;4.70;57.90
19403;DHT22;9837;48.888;8.998;2023-03-01T08:56:38;4.90;57.70
19403;DHT22;9837;48.888;8.998;2023-03-01T08:59:03;5.10;57.00
19403;DHT22;9837;48.888;8.998;2023-03-01T09:03:55;5.30;56.40
19403;DHT22;9837;48.888;8.998;2023-03-01T09:06:21;5.60;56.40
19403;DHT22;9837;48.888;8.998;2023-03-01T09:08:48;6.00;56.10
19403;DHT22;9837;48.888;8.998;2023-03-01T09:11:19;5.50;55.60
19403;DHT22;9837;48.888;8.998;2023-03-01T09:13:46;5.40;55.50
19403;DHT22;9837;48.888;8.998;2023-03-01T09:16:15;5.10;55.80
19403;DHT22;9837;48.888;8.998;2023-03-01T09:18:42;5.20;56.10
19403;DHT22;9837;48.888;8.998;2023-03-01T09:21:10;5.20;56.50
19403;DHT22;9837;48.888;8.998;2023-03-01T09:23:43;5.30;56.40
19403;DHT22;9837;48.888;8.998;2023-03-01T09:26:12;5.30;56.00
19403;DHT22;9837;48.888;8.998;2023-03-01T09:28:40;5.40;55.60
19403;DHT22;9837;48.888;8.998;2023-03-01T09:31:10;5.40;56.20
19403;DHT22;9837;48.888;8.998;2023-03-01T09:33:39;5.20;56.10
19403;DHT22;9837;48.888;8.998;2023-03-01T09:36:13;5.30;55.70
19403;DHT22;9837;48.888;8.998;2023-03-01T09:38:39;5.30;56.20
19403;DHT22;9837;48.888;8.998;2023-03-01T09:43:46;5.60;55.20
19403;DHT22;9837;48.888;8.998;2023-03-01T09:46:14;5.70;54.90
19403;DHT22;9837;48.888;8.998;2023-03-01T09:48:55;5.70;55.40
19403;DHT22;9837;48.888;8.998;2023-03-01T09:51:34;5.90;54.80
19403;DHT22;9837;48.888;8.998;2023-03-01T09:54:04;6.10;54.40
19403;DHT22;9837;48.888;8.998;2023-03-01T09:59:28;6.00;54.10
19403;DHT22;9837;48.888;8.998;2023-03-01T10:04:50;6.30;53.50
19403;DHT22;9837;48.888;8.998;2023-03-01T10:07:27;6.20;53.10
19403;DHT22;9837;48.888;8.998;2023-03-01T10:09:53;6.20;53.70
19403;DHT22;9837;48.888;8.998;2023-03-01T10:12:24;6.30;53.60
19403;DHT22;9837;48.888;8.998;2023-03-01T10:15:04;6.20;53.40
19403;DHT22;9837;48.888;8.998;2023-03-01T10:17:52;6.60;52.00
19403;DHT22;9837;48.888;8.998;2023-03-01T10:20:24;6.60;52.00
19403;DHT22;9837;48.888;8.998;2023-03-01T10:22:51;6.60;52.50
19403;DHT22;9837;48.888;8.998;2023-03-01T10:30:57;7.20;51.30
19403;DHT22;9837;48.888;8.998;2023-03-01T10:33:26;7.20;51.80
19403;DHT22;9837;48.888;8.998;2023-03-01T10:35:53;7.20;51.20
19403;DHT22;9837;48.888;8.998;2023-03-01T10:38:19;7.00;51.70
19403;DHT22;9837;48.888;8.998;2023-03-01T10:40:59;7.40;51.20
19403;DHT22;9837;48.888;8.998;2023-03-01T10:43:32;7.40;51.70
19403;DHT22;9837;48.888;8.998;2023-03-01T10:46:32;7.40;51.20
19403;DHT22;9837;48.888;8.998;2023-03-01T10:51:32;7.80;50.70
19403;DHT22;9837;48.888;8.998;2023-03-01T10:53:58;7.80;50.20
19403;DHT22;9837;48.888;8.998;2023-03-01T10:56:24;7.50;50.70
19403;DHT22;9837;48.888;8.998;2023-03-01T10:58:58;7.20;51.00
19403;DHT22;9837;48.888;8.998;2023-03-01T11:01:26;7.60;51.60
19403;DHT22;9837;48.888;8.998;2023-03-01T11:06:30;8.00;50.20
19403;DHT22;9837;48.888;8.998;2023-03-01T11:08:56;7.90;49.80
19403;DHT22;9837;48.888;8.998;2023-03-01T11:11:33;7.80;49.70
19403;DHT22;9837;48.888;8.998;2023-03-01T11:14:15;7.80;50.30
19403;DHT22;9837;48.888;8.998;2023-03-01T11:16:44;7.80;50.10
19403;DHT22;9837;48.888;8.998;2023-03-01T11:24:13;8.20;48.70
19403;DHT22;9837;48.888;8.998;2023-03-01T11:26:42;9.20;50.30
19403;DHT22;9837;48.888;8.998;2023-03-01T11:29:30;8.30;50.20
19403;DHT22;9837;48.888;8.998;2023-03-01T11:32:01;8.60;49.00
19403;DHT22;9837;48.888;8.998;2023-03-01T11:34:45;8.90;48.70
19403;DHT22;9837;48.888;8.998;2023-03-01T11:37:30;9.00;47.40
19403;DHT22;9837;48.888;8.998;2023-03-01T11:40:17;9.00;47.70
19403;DHT22;9837;48.888;8.998;2023-03-01T11:45:15;9.20;47.80
19403;DHT22;9837;48.888;8.998;2023-03-01T11:50:43;9.10;47.40
19403;DHT22;9837;48.888;8.998;2023-03-01T12:04:59;9.00;47.60
19403;DHT22;9837;48.888;8.998;2023-03-01T12:10:44;8.90;48.20
19403;DHT22;9837;48.888;8.998;2023-03-01T12:13:54;9.20;47.90
19403;DHT22;9837;48.888;8.998;2023-03-01T12:16:40;9.50;47.50
19403;DHT22;9837;48.888;8.998;2023-03-01T12:22:06;9.70;46.80
19403;DHT22;9837;48.888;8.998;2023-03-01T12:24:54;9.70;47.60
19403;DHT22;9837;48.888;8.998;2023-03-01T12:27:37;9.50;46.30
19403;DHT22;9837;48.888;8.998;2023-03-01T12:39:15;10.00;46.10
19403;DHT22;9837;48.888;8.998;2023-03-01T12:47:44;10.30;46.00
19403;DHT22;9837;48.888;8.998;2023-03-01T12:50:35;10.20;45.60
19403;DHT22;9837;48.888;8.998;2023-03-01T12:53:02;10.30;46.20
19403;DHT22;9837;48.888;8.998;2023-03-01T13:01:13;9.70;47.30
19403;DHT22;9837;48.888;8.998;2023-03-01T13:12:43;9.60;47.20
19403;DHT22;9837;48.888;8.998;2023-03-01T13:17:48;9.60;47.50
19403;DHT22;9837;48.888;8.998;2023-03-01T13:20:16;9.60;48.10
19403;DHT22;9837;48.888;8.998;2023-03-01T13:22:42;9.90;47.80
19403;DHT22;9837;48.888;8.998;2023-03-01T13:25:19;9.70;47.60
19403;DHT22;9837;48.888;8.998;2023-03-01T13:27:46;9.60;48.00
19403;DHT22;9837;48.888;8.998;2023-03-01T13:30:41;9.20;49.00
19403;DHT22;9837;48.888;8.998;2023-03-01T13:35:51;8.90;49.90
19403;DHT22;9837;48.888;8.998;2023-03-01T13:38:37;8.90;50.50
19403;DHT22;9837;48.888;8.998;2023-03-01T13:41:03;9.20;50.00
19403;DHT22;9837;48.888;8.998;2023-03-01T13:43:35;9.50;48.50
19403;DHT22;9837;48.888;8.998;2023-03-01T13:46:23;9.30;48.90
19403;DHT22;9837;48.888;8.998;2023-03-01T13:48:51;9.30;49.50
19403;DHT22;9837;48.888;8.998;2023-03-01T13:51:25;9.20;49.80
19403;DHT22;9837;48.888;8.998;2023-03-01T13:53:53;9.20;49.50
19403;DHT22;9837;48.888;8.998;2023-03-01T13:56:25;9.20;49.70
19403;DHT22;9837;48.888;8.998;2023-03-01T14:03:46;9.90;48.60
19403;DHT22;9837;48.888;8.998;2023-03-01T14:06:17;10.30;47.40
19403;DHT22;9837;48.888;8.998;2023-03-01T14:08:45;10.20;47.90
19403;DHT22;9837;48.888;8.998;2023-03-01T14:14:32;9.60;49.40
19403;DHT22;9837;48.888;8.998;2023-03-01T14:19:43;9.60;48.30
19403;DHT22;9837;48.888;8.998;2023-03-01T14:24:39;9.50;48.90
19403;DHT22;9837;48.888;8.998;2023-03-01T14:27:12;9.60;49.00
19403;DHT22;9837;48.888;8.998;2023-03-01T14:29:39;9.60;49.00
19403;DHT22;9837;48.888;8.998;2023-03-01T14:34:35;9.60;48.70
19403;DHT22;9837;48.888;8.998;2023-03-01T14:37:32;9.70;48.80
19403;DHT22;9837;48.888;8.998;2023-03-01T14:39:59;9.90;48.40
19403;DHT22;9837;48.888;8.998;2023-03-01T14:42:28;9.90;48.20
19403;DHT22;9837;48.888;8.998;2023-03-01T14:44:55;9.70;48.20
19403;DHT22;9837;48.888;8.998;2023-03-01T14:47:29;9.50;48.50
19403;DHT22;9837;48.888;8.998;2023-03-01T14:50:18;9.50;49.10
19403;DHT22;9837;48.888;8.998;2023-03-01T14:52:47;9.80;48.90
19403;DHT22;9837;48.888;8.998;2023-03-01T14:55:19;9.90;48.30
19403;DHT22;9837;48.888;8.998;2023-03-01T14:57:48;9.50;49.00
19403;DHT22;9837;48.888;8.998;2023-03-01T15:00:24;9.90;48.90
19403;DHT22;9837;48.888;8.998;2023-03-01T15:02:52;10.10;48.20
19403;DHT22;9837;48.888;8.998;2023-03-01T15:05:27;9.70;48.30
19403;DHT22;9837;48.888;8.998;2023-03-01T15:07:55;13.00;50.70
19403;DHT22;9837;48.888;8.998;2023-03-01T15:10:24;9.30;49.40
19403;DHT22;9837;48.888;8.998;2023-03-01T15:12:50;9.60;49.10
19403;DHT22;9837;48.888;8.998;2023-03-01T15:15:39;9.70;48.40
19403;DHT22;9837;48.888;8.998;2023-03-01T15:20:39;9.80;47.90
19403;DHT22;9837;48.888;8.998;2023-03-01T15:23:05;9.60;48.00
19403;DHT22;9837;48.888;8.998;2023-03-01T15:25:32;9.60;48.60
19403;DHT22;9837;48.888;8.998;2023-03-01T15:27:59;9.30;49.00
19403;DHT22;9837;48.888;8.998;2023-03-01T15:30:29;9.40;49.10
19403;DHT22;9837;48.888;8.998;2023-03-01T15:33:19;9.40;49.00
19403;DHT22;9837;48.888;8.998;2023-03-01T15:35:50;9.30;49.00
19403;DHT22;9837;48.888;8.998;2023-03-01T15:38:34;9.40;48.90
19403;DHT22;9837;48.888;8.998;2023-03-01T15:41:03;9.60;48.50
19403;DHT22;9837;48.888;8.998;2023-03-01T15:43:45;9.80;48.00
19403;DHT22;9837;48.888;8.998;2023-03-01T15:46:38;9.60;48.20
19403;DHT22;9837;48.888;8.998;2023-03-01T15:49:19;9.90;47.40
19403;DHT22;9837;48.888;8.998;2023-03-01T15:51:52;9.80;47.50
19403;DHT22;9837;48.888;8.998;2023-03-01T15:54:21;9.80;48.00
19403;DHT22;9837;48.888;8.998;2023-03-01T15:56:47;9.80;47.80
19403;DHT22;9837;48.888;8.998;2023-03-01T15:59:13;9.80;47.90
19403;DHT22;9837;48.888;8.998;2023-03-01T16:01:43;9.80;47.30
19403;DHT22;9837;48.888;8.998;2023-03-01T16:04:13;9.80;47.80
19403;DHT22;9837;48.888;8.998;2023-03-01T16:06:49;9.60;47.80
19403;DHT22;9837;48.888;8.998;2023-03-01T16:09:21;9.60;48.00
19403;DHT22;9837;48.888;8.998;2023-03-01T16:11:47;9.50;48.40
19403;DHT22;9837;48.888;8.998;2023-03-01T16:14:13;9.40;48.40
19403;DHT22;9837;48.888;8.998;2023-03-01T16:16:40;9.50;48.30
19403;DHT22;9837;48.888;8.998;2023-03-01T16:19:05;9.70;48.10
19403;DHT22;9837;48.888;8.998;2023-03-01T16:21:31;9.60;47.80
19403;DHT22;9837;48.888;8.998;2023-03-01T16:23:56;9.40;47.90
19403;DHT22;9837;48.888;8.998;2023-03-01T16:26:22;9.40;48.50
19403;DHT22;9837;48.888;8.998;2023-03-01T16:28:47;11.00;49.00
19403;DHT22;9837;48.888;8.998;2023-03-01T16:31:17;9.30;48.50
19403;DHT22;9837;48.888;8.998;2023-03-01T16:33:43;9.50;48.40
19403;DHT22;9837;48.888;8.998;2023-03-01T16:36:15;9.80;46.90
19403;DHT22;9837;48.888;8.998;2023-03-01T16:38:41;9.70;47.00
19403;DHT22;9837;48.888;8.998;2023-03-01T16:41:13;9.60;47.60
19403;DHT22;9837;48.888;8.998;2023-03-01T16:43:38;9.10;48.80
19403;DHT22;9837;48.888;8.998;2023-03-01T16:46:26;9.00;48.70
19403;DHT22;9837;48.888;8.998;2023-03-01T16:48:53;8.90;49.30
19403;DHT22;9837;48.888;8.998;2023-03-01T16:51:20;9.00;49.80
19403;DHT22;9837;48.888;8.998;2023-03-01T16:53:46;8.80;49.50
19403;DHT22;9837;48.888;8.998;2023-03-01T16:56:13;8.90;48.70
19403;DHT22;9837;48.888;8.998;2023-03-01T16:58:39;8.90;49.20
19403;DHT22;9837;48.888;8.998;2023-03-01T17:01:11;9.00;48.50
19403;DHT22;9837;48.888;8.998;2023-03-01T17:03:37;9.00;48.60
19403;DHT22;9837;48.888;8.998;2023-03-01T17:06:05;8.90;48.60
19403;DHT22;9837;48.888;8.998;2023-03-01T17:08:31;8.90;49.20
19403;DHT22;9837;48.888;8.998;2023-03-01T17:11:02;8.80;49.40
19403;DHT22;9837;48.888;8.998;2023-03-01T17:13:28;8.80;49.50
19403;DHT22;9837;48.888;8.998;2023-03-01T17:15:53;8.80;49.30
19403;DHT22;9837;48.888;8.998;2023-03-01T17:18:19;8.90;49.20
19403;DHT22;9837;48.888;8.998;2023-03-01T17:20:45;9.00;49.00
19403;DHT22;9837;48.888;8.998;2023-03-01T17:23:10;8.90;49.10
19403;DHT22;9837;48.888;8.998;2023-03-01T17:25:36;8.80;49.20
19403;DHT22;9837;48.888;8.998;2023-03-01T17:28:07;8.90;49.30
19403;DHT22;9837;48.888;8.998;2023-03-01T17:30:32;8.80;48.90
19403;DHT22;9837;48.888;8.998;2023-03-01T17:32:59;8.80;49.30
19403;DHT22;9837;48.888;8.998;2023-03-01T17:35:24;8.90;49.20
19403;DHT22;9837;48.888;8.998;2023-03-01T17:37:50;8.60;49.60
19403;DHT22;9837;48.888;8.998;2023-03-01T17:40:16;8.70;49.60
19403;DHT22;9837;48.888;8.998;2023-03-01T17:42:42;8.90;49.10
19403;DHT22;9837;48.888;8.998;2023-03-01T17:47:33;8.90;48.60
19403;DHT22;9837;48.888;8.998;2023-03-01T17:49:59;13.00;51.10
19403;DHT22;9837;48.888;8.998;2023-03-01T17:54:50;8.50;49.20
19403;DHT22;9837;48.888;8.998;2023-03-01T17:57:16;8.20;50.40
19403;DHT22;9837;48.888;8.998;2023-03-01T17:59:41;8.10;50.90
19403;DHT22;9837;48.888;8.998;2023-03-01T18:02:09;9.70;51.50
19403;DHT22;9837;48.888;8.998;2023-03-01T18:04:34;7.90;51.20
19403;DHT22;9837;48.888;8.998;2023-03-01T18:07:00;8.00;51.40
19403;DHT22;9837;48.888;8.998;2023-03-01T18:09:26;8.20;51.10
19403;DHT22;9837;48.888;8.998;2023-03-01T18:11:52;8.30;50.80
19403;DHT22;9837;48.888;8.998;2023-03-01T18:14:18;8.20;50.80
19403;DHT22;9837;48.888;8.998;2023-03-01T18:16:44;8.30;50.90
19403;DHT22;9837;48.888;8.998;2023-03-01T18:19:10;8.30;50.10
19403;DHT22;9837;48.888;8.998;2023-03-01T18:21:35;8.10;50.50
19403;DHT22;9837;48.888;8.998;2023-03-01T18:24:01;8.10;51.00
19403;DHT22;9837;48.888;8.998;2023-03-01T18:26:27;8.10;51.20
19403;DHT22;9837;48.888;8.998;2023-03-01T18:28:54;8.10;51.30